Time;durP1;ratioP1;P1;durP2;ratioP2;P2;SDS_P1;SDS_P2;PMS_P1;PMS_P2;Temp;Humidity;BMP_temperature;BMP_pressure;BME280_temperature;BME280_humidity;BME280_pressure;Samples;Min_cycle;Max_cycle;Signal;HPM_P1;HPM_P2
2023/08/28 06:23:22;;;;;;;;;1.00;0.00;;;;;22.35;55.42;101028.09;5056751;27;45498;-78
2023/08/28 06:25:48;;;;;;;;;0.33;0.33;;;;;22.49;55.18;101024.88;5067893;28;45547;-79
2023/08/28 06:28:13;;;;;;;;;1.33;1.33;;;;;22.70;55.16;101022.88;5068782;28;45388;-77
2023/08/28 06:30:39;;;;;;;;;0.33;0.00;;;;;22.90;54.71;101029.81;5067552;28;45459;-77
2023/08/28 06:33:04;;;;;;;;;1.00;1.00;;;;;23.12;54.56;101024.03;5067291;28;45783;-78
2023/08/28 06:35:32;;;;;;;;;0.00;0.00;;;;;23.36;54.00;101017.97;5065411;27;45796;-78
2023/08/28 06:37:57;;;;;;;;;1.00;1.00;;;;;23.59;53.74;101022.84;5064977;28;45665;-78
2023/08/28 06:40:22;;;;;;;;;0.33;0.33;;;;;23.82;53.33;101022.22;5059811;27;45712;-79
2023/08/28 06:42:48;;;;;;;;;3.00;1.00;;;;;24.04;52.73;101014.50;5058883;28;45919;-79
2023/08/28 06:45:13;;;;;;;;;1.00;1.00;;;;;24.23;52.52;101010.66;5067846;27;45908;-79
2023/08/28 06:47:38;;;;;;;;;0.00;0.00;;;;;24.42;52.06;101014.09;5064709;28;45387;-80
2023/08/28 06:50:04;;;;;;;;;1.67;0.33;;;;;24.59;51.62;101017.66;5066195;27;46006;-79
2023/08/28 06:52:30;;;;;;;;;4.33;2.00;;;;;24.75;51.25;101014.09;5068574;28;46494;-78
2023/08/28 06:54:55;;;;;;;;;1.00;1.00;;;;;24.92;50.97;101020.41;5067564;27;45531;-79
2023/08/28 06:57:20;;;;;;;;;3.33;1.33;;;;;25.05;50.46;101019.88;5061486;27;45374;-77
2023/08/28 06:59:46;;;;;;;;;0.00;0.00;;;;;25.19;50.11;101017.47;5067021;28;45514;-77
2023/08/28 07:02:11;;;;;;;;;1.00;1.00;;;;;25.28;50.13;101008.28;5064286;28;45517;-78
2023/08/28 07:04:36;;;;;;;;;1.00;0.00;;;;;25.40;49.91;101011.47;5064798;28;45582;-79
2023/08/28 07:07:02;;;;;;;;;0.33;0.33;;;;;25.50;49.13;101005.84;5067975;28;45391;-79
2023/08/28 07:09:27;;;;;;;;;1.00;1.00;;;;;25.59;49.07;101007.53;5065473;27;45805;-79
2023/08/28 07:11:52;;;;;;;;;0.00;0.00;;;;;25.68;48.65;101005.63;5061490;27;45993;-78
2023/08/28 07:14:18;;;;;;;;;1.00;0.00;;;;;25.76;48.61;101002.84;5055525;28;45822;-78
2023/08/28 07:16:43;;;;;;;;;1.00;1.00;;;;;25.84;49.01;101010.16;5049779;27;46081;-80
2023/08/28 07:19:08;;;;;;;;;1.67;1.00;;;;;25.91;48.53;101008.41;5059548;27;48801;-80
2023/08/28 07:21:34;;;;;;;;;0.00;0.00;;;;;25.95;47.96;101000.72;5071643;27;46209;-81
2023/08/28 07:23:59;;;;;;;;;0.00;0.00;;;;;25.98;48.45;101008.53;5078560;27;45549;-78
2023/08/28 07:26:24;;;;;;;;;0.33;0.33;;;;;26.01;47.92;101010.91;5087772;27;45369;-79
2023/08/28 07:28:50;;;;;;;;;3.67;1.67;;;;;26.08;48.04;101000.16;5077467;27;45490;-79
2023/08/28 07:31:15;;;;;;;;;3.67;0.67;;;;;26.10;48.13;101002.69;5079940;27;45485;-79
2023/08/28 07:33:41;;;;;;;;;2.00;0.00;;;;;26.13;47.28;101003.19;5061228;27;45530;-79
2023/08/28 07:36:06;;;;;;;;;1.00;1.00;;;;;26.15;48.04;101001.13;5066354;27;45614;-78
2023/08/28 07:38:32;;;;;;;;;1.00;1.00;;;;;26.21;47.36;101002.28;5068836;27;45836;-79
2023/08/28 07:40:57;;;;;;;;;0.00;0.00;;;;;26.26;47.70;101002.63;5068271;27;45557;-79
2023/08/28 07:43:23;;;;;;;;;0.33;0.33;;;;;26.32;47.60;101001.03;5087851;27;45571;-78
2023/08/28 07:45:48;;;;;;;;;1.00;0.00;;;;;26.38;48.22;100997.59;5066493;28;45428;-77
2023/08/28 07:48:13;;;;;;;;;0.00;0.00;;;;;26.44;48.39;101002.31;5075214;27;45615;-77
2023/08/28 07:50:40;;;;;;;;;2.00;2.00;;;;;26.48;46.63;100999.22;5073563;28;46206;-76
2023/08/28 07:53:06;;;;;;;;;1.67;1.00;;;;;26.43;46.25;100999.75;5072096;28;45455;-78
2023/08/28 07:55:31;;;;;;;;;1.00;1.00;;;;;26.43;47.01;101007.94;5067379;28;45728;-78
2023/08/28 07:57:57;;;;;;;;;0.00;0.00;;;;;26.43;46.16;100997.91;5069792;27;45743;-83
2023/08/28 08:00:22;;;;;;;;;0.67;0.67;;;;;26.46;46.27;101009.44;5073882;27;55426;-81
2023/08/28 08:02:53;;;;;;;;;1.00;1.00;;;;;26.46;46.51;101010.28;5070483;27;45859;-81
2023/08/28 08:05:19;;;;;;;;;1.00;1.00;;;;;26.48;46.30;101008.22;5067731;28;45498;-80
2023/08/28 08:07:44;;;;;;;;;1.00;1.00;;;;;26.51;46.02;101001.56;5070948;27;46134;-81
2023/08/28 08:10:11;;;;;;;;;0.33;0.33;;;;;26.52;46.08;101009.56;5074237;28;46225;-79
2023/08/28 08:12:38;;;;;;;;;1.00;1.00;;;;;26.54;45.75;101002.06;5063636;28;45455;-77
2023/08/28 08:15:04;;;;;;;;;3.00;1.33;;;;;26.57;45.94;101003.56;5073518;28;45490;-78
2023/08/28 08:17:30;;;;;;;;;2.00;2.00;;;;;26.57;46.50;101006.31;5069397;28;45622;-81
2023/08/28 08:19:55;;;;;;;;;3.00;2.00;;;;;26.60;46.41;101013.25;5066756;28;46083;-81
2023/08/28 08:22:20;;;;;;;;;2.67;1.33;;;;;26.63;45.72;101012.88;5072862;28;45423;-81
2023/08/28 08:24:46;;;;;;;;;2.00;2.00;;;;;26.61;46.12;101023.97;5074208;28;45375;-81
2023/08/28 08:27:11;;;;;;;;;2.00;2.00;;;;;26.65;45.69;101027.97;5073583;28;50525;-81
2023/08/28 08:29:36;;;;;;;;;3.00;2.33;;;;;26.68;45.64;101029.50;5072077;28;45436;-82
2023/08/28 08:32:02;;;;;;;;;1.33;1.33;;;;;26.68;46.21;101026.78;5071134;28;53749;-79
2023/08/28 08:34:28;;;;;;;;;2.00;1.00;;;;;26.70;46.09;101028.28;5071597;28;45410;-79
2023/08/28 08:36:54;;;;;;;;;3.00;3.00;;;;;26.72;46.15;101033.53;5069137;28;45961;-77
2023/08/28 08:39:19;;;;;;;;;1.00;1.00;;;;;26.74;45.48;101030.66;5058774;28;45715;-78
2023/08/28 08:41:45;;;;;;;;;2.00;2.00;;;;;26.75;45.39;101030.47;5056468;28;45665;-78
2023/08/28 08:44:10;;;;;;;;;2.33;1.00;;;;;26.77;46.04;101031.13;5058035;28;45524;-78
2023/08/28 08:46:36;;;;;;;;;3.00;1.33;;;;;26.80;45.52;101029.91;5051602;28;45651;-81
2023/08/28 08:49:03;;;;;;;;;3.33;1.00;;;;;26.82;45.88;101036.03;5072298;28;46095;-81
2023/08/28 08:51:32;;;;;;;;;1.67;1.67;;;;;26.81;45.99;101029.72;5062144;28;45475;-84
2023/08/28 08:54:14;;;;;;;;;2.67;2.00;;;;;26.83;45.13;101029.56;5069283;28;45770;-81
2023/08/28 08:56:41;;;;;;;;;2.00;2.00;;;;;26.82;45.43;101023.25;5061698;27;45471;-77
2023/08/28 08:59:08;;;;;;;;;3.00;2.33;;;;;26.87;46.05;101019.13;5071720;28;46145;-78
2023/08/28 09:01:36;;;;;;;;;3.67;2.00;;;;;26.90;45.74;101021.50;5073635;28;45650;-78
2023/08/28 09:04:03;;;;;;;;;2.00;2.00;;;;;26.91;45.95;101020.44;5060500;28;45593;-77
2023/08/28 09:06:32;;;;;;;;;4.00;3.00;;;;;26.94;45.57;101017.41;5056547;28;45470;-75
2023/08/28 09:08:58;;;;;;;;;2.00;2.00;;;;;26.95;45.71;101021.81;5073911;28;45367;-76
2023/08/28 09:11:23;;;;;;;;;1.00;1.00;;;;;26.99;45.27;101019.56;5069423;28;45644;-75
2023/08/28 09:13:49;;;;;;;;;1.33;1.33;;;;;27.02;45.96;101024.66;5072355;28;45722;-74
2023/08/28 09:16:17;;;;;;;;;2.00;2.00;;;;;27.04;45.32;101025.28;5068640;28;45796;-76
2023/08/28 09:18:43;;;;;;;;;1.67;1.33;;;;;27.07;45.14;101030.38;5052664;28;46420;-76
2023/08/28 09:21:12;;;;;;;;;1.00;1.00;;;;;27.07;45.63;101025.78;5072049;27;45581;-74
2023/08/28 09:23:45;;;;;;;;;1.00;1.00;;;;;27.10;45.70;101025.41;5068206;28;45777;-76
2023/08/28 09:26:13;;;;;;;;;1.33;1.33;;;;;27.12;45.76;101022.50;5071576;28;45340;-74
2023/08/28 09:28:38;;;;;;;;;3.00;3.00;;;;;27.13;45.74;101020.63;5064902;28;47104;-76
2023/08/28 09:31:03;;;;;;;;;2.00;2.00;;;;;27.17;45.72;101020.06;5060864;28;45472;-75
2023/08/28 09:33:44;;;;;;;;;1.67;1.67;;;;;27.18;45.36;101020.91;5052726;28;51416;-73
2023/08/28 09:36:17;;;;;;;;;2.33;2.33;;;;;27.18;44.52;101021.72;5071821;28;45589;-76
2023/08/28 09:38:43;;;;;;;;;1.67;1.33;;;;;27.18;45.15;101018.19;5069837;28;46212;-75
2023/08/28 09:41:09;;;;;;;;;1.67;1.67;;;;;27.13;45.34;101010.56;5072791;28;45494;-75
2023/08/28 09:43:35;;;;;;;;;1.67;1.67;;;;;27.13;45.15;101023.34;5073700;28;45520;-75
2023/08/28 09:46:03;;;;;;;;;1.00;1.00;;;;;27.08;44.52;101023.91;5072053;28;45562;-74
2023/08/28 09:48:32;;;;;;;;;1.00;1.00;;;;;27.05;45.30;101019.66;5072815;28;46009;-75
2023/08/28 09:51:02;;;;;;;;;3.33;2.00;;;;;27.04;44.71;101017.97;5071285;28;45377;-75
2023/08/28 09:53:28;;;;;;;;;1.00;1.00;;;;;26.95;45.19;101005.47;5072387;28;45376;-75
2023/08/28 09:55:54;;;;;;;;;2.00;1.00;;;;;26.98;44.75;101020.59;5072568;28;45453;-75
2023/08/28 09:58:24;;;;;;;;;1.00;1.00;;;;;26.97;45.32;101017.00;5052572;28;46064;-74
2023/08/28 10:00:51;;;;;;;;;1.00;1.00;;;;;26.93;45.60;101015.69;5071460;28;45420;-73
2023/08/28 10:03:16;;;;;;;;;3.00;3.00;;;;;26.92;44.61;101022.13;5066763;28;45468;-75
2023/08/28 10:05:43;;;;;;;;;2.00;1.33;;;;;26.92;45.01;101016.69;5069356;28;45380;-74
2023/08/28 10:08:11;;;;;;;;;3.00;3.00;;;;;26.91;44.96;101015.88;5072972;28;45543;-74
2023/08/28 10:10:38;;;;;;;;;1.00;1.00;;;;;26.87;44.91;101006.38;5070803;28;45522;-76
2023/08/28 10:13:05;;;;;;;;;2.33;2.33;;;;;26.91;44.68;101013.13;5055159;28;45454;-76
2023/08/28 10:15:41;;;;;;;;;3.00;3.00;;;;;26.92;43.97;101009.38;5072822;28;45527;-74
2023/08/28 10:18:15;;;;;;;;;4.00;2.00;;;;;26.93;43.77;101013.81;5062144;28;45390;-74
2023/08/28 10:20:44;;;;;;;;;2.67;2.33;;;;;26.92;44.47;101012.09;5071531;28;45476;-74
2023/08/28 10:23:09;;;;;;;;;2.33;2.33;;;;;26.93;43.78;101010.25;5066540;28;45438;-74
2023/08/28 10:25:36;;;;;;;;;2.00;2.00;;;;;26.91;43.54;101009.56;5072381;28;45491;-74
2023/08/28 10:28:02;;;;;;;;;4.00;4.00;;;;;26.93;43.48;101007.50;5063674;28;45431;-73
2023/08/28 10:30:28;;;;;;;;;2.00;2.00;;;;;26.92;43.57;101006.66;5063521;28;45700;-74
2023/08/28 10:32:56;;;;;;;;;2.00;2.00;;;;;26.93;43.67;101007.50;5070684;28;45411;-74
2023/08/28 10:35:22;;;;;;;;;2.00;2.00;;;;;26.92;43.43;101019.41;5069516;28;45416;-74
2023/08/28 10:37:52;;;;;;;;;2.00;2.00;;;;;26.93;43.60;101010.25;5067102;28;46180;-73
2023/08/28 10:40:20;;;;;;;;;2.67;2.67;;;;;26.94;43.65;101010.06;5070178;28;45433;-74
2023/08/28 10:42:47;;;;;;;;;2.00;2.00;;;;;26.94;43.83;101001.88;5071288;28;45594;-74
2023/08/28 10:45:13;;;;;;;;;2.67;2.67;;;;;26.95;42.90;101000.03;5049741;28;45539;-74
2023/08/28 10:47:38;;;;;;;;;3.00;1.00;;;;;26.94;42.91;100992.88;5069119;28;46157;-74
2023/08/28 10:50:07;;;;;;;;;3.00;2.67;;;;;26.95;43.44;100997.31;5072500;28;45496;-74
2023/08/28 10:52:33;;;;;;;;;2.00;2.00;;;;;26.94;42.63;100999.16;5071742;28;45413;-74
2023/08/28 10:55:04;;;;;;;;;2.00;2.00;;;;;26.91;43.10;100998.66;5070921;28;45573;-74
2023/08/28 10:57:29;;;;;;;;;4.00;2.33;;;;;26.91;42.21;101004.97;5064335;27;45987;-74
2023/08/28 10:59:59;;;;;;;;;2.33;2.00;;;;;26.89;42.19;101003.47;5071538;28;45509;-74
2023/08/28 11:02:24;;;;;;;;;3.00;2.00;;;;;26.89;42.71;101008.91;5063790;28;45447;-74
2023/08/28 11:04:50;;;;;;;;;1.67;1.67;;;;;26.88;42.54;101009.91;5068749;28;45509;-74
2023/08/28 11:07:21;;;;;;;;;2.00;2.00;;;;;26.86;41.97;101009.28;5062145;28;46099;-74
2023/08/28 11:09:47;;;;;;;;;2.67;2.67;;;;;26.78;42.67;100997.44;5065744;28;45688;-74
2023/08/28 11:12:16;;;;;;;;;3.67;3.00;;;;;26.83;42.17;101013.22;5066461;28;45539;-74
2023/08/28 11:14:53;;;;;;;;;3.00;3.00;;;;;26.82;42.75;101003.34;5066190;28;45361;-74
2023/08/28 11:17:20;;;;;;;;;3.00;3.00;;;;;26.81;42.24;101007.13;5067347;27;45844;-74
2023/08/28 11:19:51;;;;;;;;;3.67;3.67;;;;;26.78;42.60;100999.31;5065679;28;45577;-74
2023/08/28 11:22:34;;;;;;;;;2.00;2.00;;;;;26.75;43.22;101000.53;5066736;28;45430;-74
2023/08/28 11:25:01;;;;;;;;;2.00;2.00;;;;;26.73;42.89;100991.66;5052699;28;45901;-74
2023/08/28 11:27:48;;;;;;;;;3.00;1.00;;;;;26.72;43.04;100998.16;5063876;27;46304;-74
2023/08/28 11:30:16;;;;;;;;;2.00;2.00;;;;;26.71;43.24;101004.63;5048674;28;45537;-74
2023/08/28 11:32:44;;;;;;;;;2.33;2.33;;;;;26.66;43.75;100998.91;5065456;28;45438;-74
2023/08/28 11:35:13;;;;;;;;;2.00;2.00;;;;;26.65;44.00;100999.94;5067313;28;45395;-75
2023/08/28 11:37:41;;;;;;;;;1.67;1.67;;;;;26.55;45.19;101001.03;5072783;28;46447;-75
2023/08/28 11:40:10;;;;;;;;;3.67;2.00;;;;;26.55;45.12;101002.91;5070566;28;45513;-72
2023/08/28 11:42:37;;;;;;;;;4.00;4.00;;;;;26.52;45.73;101006.84;5072448;27;45411;-72
2023/08/28 11:45:06;;;;;;;;;4.00;2.33;;;;;26.47;45.45;101002.94;5086884;27;45878;-71
2023/08/28 11:47:33;;;;;;;;;3.00;3.00;;;;;26.42;45.89;101012.53;5068826;28;46287;-71
2023/08/28 11:49:59;;;;;;;;;4.00;4.00;;;;;26.40;46.09;101020.03;5069391;28;45433;-72
2023/08/28 11:52:25;;;;;;;;;3.67;3.67;;;;;26.36;45.51;101017.84;5073732;28;45415;-72
2023/08/28 11:54:52;;;;;;;;;3.00;2.00;;;;;26.31;45.79;101015.66;5064213;28;45321;-71
2023/08/28 11:57:19;;;;;;;;;3.00;3.00;;;;;26.26;46.26;101005.34;5072424;28;46240;-71
2023/08/28 11:59:45;;;;;;;;;3.00;3.00;;;;;26.18;45.61;101017.09;5074239;28;45367;-72
2023/08/28 12:02:13;;;;;;;;;2.67;2.67;;;;;26.17;46.00;101012.66;5069538;28;45531;-71
2023/08/28 12:04:39;;;;;;;;;4.00;4.00;;;;;26.13;45.85;101014.06;5071643;28;45555;-71
2023/08/28 12:07:15;;;;;;;;;2.67;2.67;;;;;26.13;45.43;101024.94;5070680;27;45743;-72
2023/08/28 12:09:41;;;;;;;;;5.00;4.00;;;;;26.10;45.93;101022.56;5075498;27;45296;-72
2023/08/28 12:12:06;;;;;;;;;2.00;2.00;;;;;26.11;45.58;101018.81;5071406;28;45278;-72
2023/08/28 12:14:33;;;;;;;;;3.33;3.33;;;;;26.15;45.78;101014.72;5071785;28;45655;-71
2023/08/28 12:17:00;;;;;;;;;3.33;3.33;;;;;26.20;45.93;101014.19;5074330;28;46213;-71
2023/08/28 12:19:25;;;;;;;;;2.00;2.00;;;;;26.24;46.57;101009.22;5065327;28;45530;-70
2023/08/28 12:21:50;;;;;;;;;3.00;3.00;;;;;26.29;45.75;101004.94;5055639;28;45591;-70
2023/08/28 12:24:16;;;;;;;;;4.67;3.67;;;;;26.34;46.29;101007.16;5074903;28;45497;-70
2023/08/28 12:26:45;;;;;;;;;3.00;3.00;;;;;26.41;46.40;101010.00;5071491;28;45926;-70
2023/08/28 12:29:10;;;;;;;;;2.67;2.67;;;;;26.44;46.00;100996.00;5073597;28;45502;-70
2023/08/28 12:31:36;;;;;;;;;3.00;2.00;;;;;26.53;45.83;101008.50;5071175;28;45364;-70
2023/08/28 12:34:09;;;;;;;;;3.00;3.00;;;;;26.56;46.13;101004.59;5072220;28;45584;-70
2023/08/28 12:36:45;;;;;;;;;2.33;2.33;;;;;26.60;45.74;100999.66;5071864;28;45440;-69
2023/08/28 12:39:15;;;;;;;;;4.67;3.00;;;;;26.67;46.22;100993.28;5076852;27;45705;-70
2023/08/28 12:41:52;;;;;;;;;2.33;2.33;;;;;26.70;45.91;100992.06;5066809;28;45466;-71
2023/08/28 12:44:17;;;;;;;;;3.00;3.00;;;;;26.76;45.91;100996.75;5065326;28;45475;-69
2023/08/28 12:46:43;;;;;;;;;3.00;3.00;;;;;26.79;45.26;100992.81;5066992;28;45652;-70
2023/08/28 12:49:11;;;;;;;;;3.00;2.00;;;;;26.81;45.67;100994.31;5073512;28;45483;-70
2023/08/28 12:51:36;;;;;;;;;3.00;3.00;;;;;26.87;45.73;100997.34;5074179;27;45549;-71
2023/08/28 12:54:01;;;;;;;;;4.00;4.00;;;;;26.88;45.86;100989.00;5071880;28;45616;-70
2023/08/28 12:56:26;;;;;;;;;3.67;2.33;;;;;26.92;45.60;100990.31;5053791;28;52690;-70
2023/08/28 12:58:52;;;;;;;;;3.00;3.00;;;;;26.96;45.65;100990.81;5067912;28;55074;-70
2023/08/28 13:01:17;;;;;;;;;3.00;3.00;;;;;26.96;45.56;100985.38;5069821;28;45558;-71
2023/08/28 13:03:43;;;;;;;;;3.00;3.00;;;;;27.01;44.81;100990.28;5071132;28;45508;-69
2023/08/28 13:06:08;;;;;;;;;4.00;3.00;;;;;27.02;45.04;100981.88;5071302;27;45496;-71
2023/08/28 13:08:34;;;;;;;;;3.00;3.00;;;;;27.05;44.23;100986.16;5073575;28;45448;-71
2023/08/28 13:10:59;;;;;;;;;3.33;3.00;;;;;27.05;44.50;100978.81;5074307;28;45650;-71
2023/08/28 13:13:25;;;;;;;;;5.00;3.00;;;;;27.07;44.16;100986.78;5071820;28;46487;-72
2023/08/28 13:15:55;;;;;;;;;4.00;4.00;;;;;27.05;43.95;100984.25;5070582;28;45423;-72
2023/08/28 13:18:20;;;;;;;;;4.00;3.00;;;;;27.07;44.47;100978.63;5054394;28;45632;-71
2023/08/28 13:20:46;;;;;;;;;2.00;2.00;;;;;27.10;44.64;100980.97;5071106;28;45560;-72
2023/08/28 13:23:11;;;;;;;;;6.00;3.00;;;;;27.13;44.01;100977.88;5071827;28;45359;-72
2023/08/28 13:25:37;;;;;;;;;3.00;2.33;;;;;27.16;44.69;100968.47;5069901;28;46169;-71
2023/08/28 13:28:02;;;;;;;;;4.33;4.00;;;;;27.20;44.86;100975.25;5069966;28;45439;-72
2023/08/28 13:30:27;;;;;;;;;3.00;3.00;;;;;27.23;44.14;100977.59;5060399;28;45392;-72
2023/08/28 13:32:54;;;;;;;;;3.00;3.00;;;;;27.25;44.62;100980.97;5072097;28;49994;-72
2023/08/28 13:35:20;;;;;;;;;2.33;2.33;;;;;27.27;44.17;100972.59;5059872;27;46126;-72
2023/08/28 13:37:45;;;;;;;;;2.67;2.67;;;;;27.30;44.05;100977.69;5069964;28;45388;-71
2023/08/28 13:40:11;;;;;;;;;6.00;4.67;;;;;27.31;43.54;100979.38;5070458;28;45412;-71
2023/08/28 13:42:37;;;;;;;;;2.00;2.00;;;;;27.31;42.27;100979.38;5068257;28;45575;-72
2023/08/28 13:45:02;;;;;;;;;2.67;2.00;;;;;27.30;42.30;100983.13;5073030;28;46255;-72
2023/08/28 13:47:28;;;;;;;;;3.67;3.67;;;;;27.27;42.64;100983.50;5067535;28;46033;-72
2023/08/28 13:49:53;;;;;;;;;4.00;4.00;;;;;27.26;42.69;100985.38;5060296;28;45527;-72
2023/08/28 13:52:19;;;;;;;;;5.33;5.00;;;;;27.23;42.39;100981.16;5070096;28;45460;-72
2023/08/28 13:54:44;;;;;;;;;7.67;4.67;;;;;27.21;42.26;100980.50;5070714;28;53631;-72
2023/08/28 13:57:10;;;;;;;;;4.33;4.00;;;;;27.18;42.54;100982.75;5071174;28;45934;-72
2023/08/28 13:59:36;;;;;;;;;5.00;3.67;;;;;27.17;42.84;100981.06;5071711;28;45479;-71
2023/08/28 14:02:01;;;;;;;;;3.00;3.00;;;;;27.12;42.48;100984.34;5069218;28;45546;-72
2023/08/28 14:04:26;;;;;;;;;2.33;2.33;;;;;27.10;42.99;100987.25;5073343;28;45440;-72
2023/08/28 14:06:52;;;;;;;;;3.00;3.00;;;;;27.08;43.19;100983.03;5068969;28;48509;-72
2023/08/28 14:09:17;;;;;;;;;3.00;3.00;;;;;27.07;43.38;100984.94;5070071;28;45895;-72
2023/08/28 14:11:42;;;;;;;;;2.00;2.00;;;;;27.05;43.54;100978.81;5063402;28;45423;-73
2023/08/28 14:14:08;;;;;;;;;4.00;3.67;;;;;27.12;43.10;100997.13;5072466;28;46111;-73
2023/08/28 14:16:33;;;;;;;;;2.00;2.00;;;;;27.14;43.33;100989.63;5071440;28;45401;-72
2023/08/28 14:18:59;;;;;;;;;3.00;1.33;;;;;27.16;44.09;100990.25;5067557;28;45508;-72
2023/08/28 14:21:24;;;;;;;;;3.33;2.00;;;;;27.19;43.49;100982.59;5067780;28;45470;-72
2023/08/28 14:23:50;;;;;;;;;2.00;2.00;;;;;27.22;43.89;100978.63;5070953;28;45550;-71
2023/08/28 14:26:15;;;;;;;;;6.33;3.00;;;;;27.25;44.27;100966.50;5062743;27;45606;-72
2023/08/28 14:28:42;;;;;;;;;3.00;3.00;;;;;27.28;43.72;100966.97;5066791;27;45582;-72
2023/08/28 14:31:07;;;;;;;;;3.33;3.00;;;;;27.31;44.43;100971.19;5060359;28;45702;-73
2023/08/28 14:33:32;;;;;;;;;1.67;1.67;;;;;27.33;43.58;100971.84;5067628;28;45468;-72
2023/08/28 14:35:58;;;;;;;;;2.00;1.67;;;;;27.33;43.87;100972.69;5069819;27;45399;-74
2023/08/28 14:38:23;;;;;;;;;4.00;3.00;;;;;27.35;44.14;100973.34;5071132;28;45380;-72
2023/08/28 14:40:51;;;;;;;;;2.00;2.00;;;;;27.38;44.26;100977.56;5071981;28;45586;-73
2023/08/28 14:43:16;;;;;;;;;1.33;1.33;;;;;27.40;44.53;100975.53;5070238;28;46085;-73
2023/08/28 14:45:42;;;;;;;;;2.33;2.00;;;;;27.43;44.03;100980.56;5074381;28;45565;-72
2023/08/28 14:48:08;;;;;;;;;3.00;3.00;;;;;27.45;44.10;100973.06;5053697;28;45396;-72
2023/08/28 14:50:33;;;;;;;;;2.00;2.00;;;;;27.46;44.08;100972.03;5076172;28;45345;-72
2023/08/28 14:52:59;;;;;;;;;2.00;2.00;;;;;27.47;44.02;100970.16;5056774;28;46025;-73
2023/08/28 14:55:24;;;;;;;;;3.00;3.00;;;;;27.49;43.17;100966.22;5075102;28;45563;-71
2023/08/28 14:57:50;;;;;;;;;4.67;4.00;;;;;27.48;43.21;100966.38;5074564;28;45422;-71
2023/08/28 15:00:17;;;;;;;;;2.00;2.00;;;;;27.41;43.97;100960.84;5074075;28;45458;-71
2023/08/28 15:02:43;;;;;;;;;3.67;2.00;;;;;27.41;43.96;100963.56;5071999;27;45739;-72
2023/08/28 15:05:09;;;;;;;;;2.33;2.33;;;;;27.44;44.15;100967.81;5075803;28;45495;-73
2023/08/28 15:07:35;;;;;;;;;2.00;2.00;;;;;27.46;43.80;100963.03;5052164;28;45614;-72
2023/08/28 15:10:05;;;;;;;;;2.00;2.00;;;;;27.45;43.85;100961.31;5074687;27;45622;-72
2023/08/28 15:12:32;;;;;;;;;2.00;2.00;;;;;27.48;43.72;100961.81;5069901;27;46184;-73
2023/08/28 15:14:58;;;;;;;;;2.00;2.00;;;;;27.49;43.88;100968.06;5068481;28;45533;-73
2023/08/28 15:17:23;;;;;;;;;4.00;2.67;;;;;27.52;43.83;100964.13;5068066;28;45442;-73
2023/08/28 15:19:48;;;;;;;;;3.67;2.00;;;;;27.54;44.01;100971.06;5071691;28;45399;-72
2023/08/28 15:22:14;;;;;;;;;1.33;1.33;;;;;27.55;44.08;100969.22;5073292;28;59996;-73
2023/08/28 15:24:39;;;;;;;;;3.67;3.67;;;;;27.54;44.22;100962.91;5073915;28;45543;-73
2023/08/28 15:27:04;;;;;;;;;4.00;3.00;;;;;27.55;43.86;100964.59;5073410;28;48925;-73
2023/08/28 15:29:30;;;;;;;;;2.00;2.00;;;;;27.60;44.21;100962.19;5075802;28;45329;-73
2023/08/28 15:31:55;;;;;;;;;5.67;4.00;;;;;27.62;43.88;100967.41;5072854;28;45557;-72
2023/08/28 15:34:22;;;;;;;;;2.00;2.00;;;;;27.62;44.49;100951.91;5067027;28;45273;-72
2023/08/28 15:36:48;;;;;;;;;0.67;0.67;;;;;27.66;43.92;100963.28;5074286;28;45510;-72
2023/08/28 15:39:14;;;;;;;;;3.00;1.67;;;;;27.68;43.94;100966.69;5070661;28;45389;-72
2023/08/28 15:41:43;;;;;;;;;2.33;2.33;;;;;27.71;43.88;100962.72;5069731;28;46045;-72
2023/08/28 15:44:08;;;;;;;;;2.67;2.67;;;;;27.71;44.16;100962.72;5055316;28;45501;-72
2023/08/28 15:46:34;;;;;;;;;3.67;2.33;;;;;27.72;43.85;100964.41;5063884;28;45360;-72
2023/08/28 15:48:59;;;;;;;;;2.00;2.00;;;;;27.72;44.09;100965.22;5075265;28;45376;-72
2023/08/28 15:51:25;;;;;;;;;3.33;3.33;;;;;27.75;44.55;100966.75;5067512;27;45643;-71
2023/08/28 15:53:50;;;;;;;;;2.00;2.00;;;;;27.74;44.00;100959.59;5077525;27;45478;-71
2023/08/28 15:56:16;;;;;;;;;2.67;2.67;;;;;27.76;43.96;100963.00;5079278;27;45409;-74
2023/08/28 15:58:41;;;;;;;;;3.00;3.00;;;;;27.73;44.68;100952.47;5070872;27;45506;-75
2023/08/28 16:01:06;;;;;;;;;3.00;3.00;;;;;27.77;44.71;100961.09;5068371;27;45500;-75
2023/08/28 16:03:32;;;;;;;;;1.00;1.00;;;;;27.78;44.42;100954.63;5067311;28;49017;-74
2023/08/28 16:06:01;;;;;;;;;2.00;2.00;;;;;27.78;44.74;100952.72;5073174;28;45775;-74
2023/08/28 16:08:27;;;;;;;;;1.33;1.33;;;;;27.79;44.00;100948.13;5070550;28;45382;-72
2023/08/28 16:10:52;;;;;;;;;1.00;1.00;;;;;27.78;44.26;100947.28;5081233;27;47466;-71
2023/08/28 16:13:18;;;;;;;;;4.33;3.00;;;;;27.79;43.87;100946.22;5072476;28;52475;-72
2023/08/28 16:15:45;;;;;;;;;3.00;3.00;;;;;27.78;43.74;100949.16;5072480;28;45482;-73
2023/08/28 16:18:10;;;;;;;;;2.33;2.33;;;;;27.77;44.31;100953.78;5066319;28;45495;-73
2023/08/28 16:20:40;;;;;;;;;1.00;1.00;;;;;27.78;44.18;100950.00;5073558;28;45989;-74
2023/08/28 16:23:06;;;;;;;;;1.67;1.67;;;;;27.80;44.27;100961.56;5069131;28;45805;-73
2023/08/28 16:25:32;;;;;;;;;2.00;2.00;;;;;27.81;44.25;100955.06;5069167;28;45526;-71
2023/08/28 16:27:57;;;;;;;;;2.33;2.33;;;;;27.81;44.09;100963.25;5066391;27;45517;-73
2023/08/28 16:30:22;;;;;;;;;2.67;2.00;;;;;27.82;44.14;100958.63;5047028;28;46114;-73
2023/08/28 16:32:48;;;;;;;;;3.33;2.00;;;;;27.81;44.64;100956.94;5069088;28;45721;-73
2023/08/28 16:35:13;;;;;;;;;4.67;2.00;;;;;27.82;44.43;100964.94;5069700;28;45435;-73
2023/08/28 16:37:39;;;;;;;;;2.33;2.33;;;;;27.84;44.41;100964.75;5054254;28;45614;-72
2023/08/28 16:40:05;;;;;;;;;2.67;2.67;;;;;27.84;44.47;100967.47;5085988;27;47583;-74
2023/08/28 16:42:30;;;;;;;;;4.33;3.00;;;;;27.86;44.13;100970.84;5065234;28;45477;-72
2023/08/28 16:44:55;;;;;;;;;2.00;2.00;;;;;27.86;43.83;100968.97;5067294;27;45699;-71
2023/08/28 16:47:21;;;;;;;;;2.00;2.00;;;;;27.87;44.16;100969.81;5072338;28;45440;-71
2023/08/28 16:49:46;;;;;;;;;2.67;2.67;;;;;27.90;44.10;100974.06;5070735;28;45456;-71
2023/08/28 16:52:11;;;;;;;;;1.67;1.67;;;;;27.90;44.75;100974.06;5070357;28;45498;-72
2023/08/28 16:54:36;;;;;;;;;1.33;1.33;;;;;27.92;44.25;100969.25;5074514;28;48767;-72
2023/08/28 16:57:02;;;;;;;;;2.00;2.00;;;;;27.93;44.56;100968.19;5068077;28;50022;-75
2023/08/28 16:59:27;;;;;;;;;3.00;3.00;;;;;27.93;44.61;100969.06;5073499;28;45936;-74
2023/08/28 17:01:53;;;;;;;;;3.00;2.33;;;;;27.93;44.15;100970.94;5072208;27;45702;-75
2023/08/28 17:04:19;;;;;;;;;1.67;1.67;;;;;27.94;44.51;100976.19;5072002;28;45709;-75
2023/08/28 17:06:44;;;;;;;;;1.00;1.00;;;;;27.93;44.52;100976.38;5069989;28;45734;-76
2023/08/28 18:25:26;;;;;;;;;4.00;2.33;;;;;23.56;47.84;101006.88;5122509;27;45489;-77
2023/08/28 18:27:52;;;;;;;;;2.00;2.00;;;;;23.65;47.74;100996.94;5101253;27;45660;-81
2023/08/28 18:30:17;;;;;;;;;3.33;2.00;;;;;23.82;47.44;101006.81;5107075;27;45447;-81
2023/08/28 18:32:43;;;;;;;;;5.00;3.33;;;;;24.01;47.51;101006.69;5106009;27;45662;-78
2023/08/28 18:35:08;;;;;;;;;4.00;3.67;;;;;24.18;47.19;101008.47;5108700;27;45873;-82
2023/08/28 18:37:34;;;;;;;;;2.00;2.00;;;;;24.37;46.84;101016.47;5108950;27;45516;-81
2023/08/28 18:39:59;;;;;;;;;2.00;2.00;;;;;24.56;46.40;101013.44;5107650;27;47631;-82
2023/08/28 18:42:24;;;;;;;;;4.00;3.00;;;;;24.73;46.51;101022.41;5106401;27;45320;-79
2023/08/28 18:44:50;;;;;;;;;2.00;2.00;;;;;24.91;45.57;101026.84;5107108;27;45572;-80
2023/08/28 18:47:15;;;;;;;;;4.00;2.00;;;;;25.06;45.73;101024.28;5107353;27;45342;-76
2023/08/28 18:49:46;;;;;;;;;3.00;3.00;;;;;25.22;45.33;101028.00;5102945;27;45644;-77
2023/08/28 18:52:13;;;;;;;;;2.00;2.00;;;;;25.34;44.52;101033.91;5109392;27;45510;-76
2023/08/28 18:54:38;;;;;;;;;3.00;3.00;;;;;25.45;44.15;101041.69;5105985;27;45444;-76
2023/08/28 18:57:05;;;;;;;;;3.67;3.00;;;;;25.58;44.62;101049.31;5102141;27;61069;-78
2023/08/28 18:59:30;;;;;;;;;2.67;2.67;;;;;25.68;44.15;101051.84;5107676;27;45799;-77